createdAt,value
2019-04-25T14:36:27.151Z,73.72
2019-04-25T14:38:57.642Z,73.83
2019-04-25T14:41:30.252Z,74.68
2019-04-25T14:44:01.666Z,75.36
2019-04-25T14:46:32.891Z,74.99
2019-04-25T14:49:02.882Z,77.70
2019-04-25T14:51:34.385Z,76.40
2019-04-25T14:54:08.408Z,78.54
2019-04-25T14:56:40.972Z,77.98
2019-04-25T14:59:12.363Z,79.06
2019-04-25T15:01:45.372Z,77.50
2019-04-25T15:04:17.354Z,77.91
2019-04-25T15:06:49.485Z,77.96
2019-04-25T15:09:20.314Z,78.08
2019-04-25T15:11:52.566Z,78.11
2019-04-25T15:14:25.257Z,77.39
2019-04-25T15:16:56.546Z,77.03
2019-04-25T15:19:27.631Z,78.57
2019-04-25T15:22:05.665Z,77.84
2019-04-25T15:24:37.683Z,76.40
2019-04-25T15:27:09.402Z,77.87
2019-04-25T15:29:51.300Z,77.93
2019-04-25T15:33:16.508Z,79.00
2019-04-25T15:35:48.913Z,78.76
2019-04-25T15:38:22.327Z,79.63
2019-04-25T15:40:52.916Z,79.45
2019-04-25T15:43:26.320Z,81.03
2019-04-25T15:45:59.003Z,78.92
2019-04-25T15:48:37.837Z,78.28
2019-04-25T15:51:10.541Z,77.80
2019-04-25T15:53:42.906Z,77.77
2019-04-25T15:56:13.956Z,77.32
2019-04-25T15:58:45.321Z,78.15
2019-04-25T16:01:15.806Z,77.95
2019-04-25T16:03:47.235Z,77.04
2019-04-25T16:06:18.341Z,77.65
2019-04-25T16:08:51.009Z,78.80
2019-04-25T16:11:22.227Z,77.15
2019-04-25T16:13:55.913Z,76.09
2019-04-25T16:16:30.872Z,78.61
2019-04-25T16:19:01.978Z,78.29
2019-04-25T16:21:33.899Z,78.33
2019-04-25T16:24:05.419Z,79.43
2019-04-25T16:26:35.676Z,77.59
2019-04-25T16:29:07.870Z,78.69
2019-04-25T16:31:39.479Z,78.87
2019-04-25T16:34:15.378Z,80.02
2019-04-25T16:36:46.994Z,80.43
2019-04-25T16:39:19.967Z,79.63
2019-04-25T16:41:51.415Z,79.11
2019-04-25T16:44:24.953Z,80.69
2019-04-25T16:46:56.956Z,80.20
2019-04-25T16:49:29.835Z,79.35
2019-04-25T16:52:01.695Z,80.72
2019-04-25T16:54:33.870Z,80.65
2019-04-25T16:57:06.735Z,81.15
2019-04-25T16:59:39.348Z,81.29
2019-04-25T17:02:12.543Z,80.71
2019-04-25T17:04:45.368Z,80.97
2019-04-25T17:07:16.759Z,80.38
2019-04-25T17:09:48.404Z,81.41
2019-04-25T17:12:19.698Z,82.19
2019-04-25T17:14:50.929Z,82.21
2019-04-25T17:17:24.020Z,81.14
2019-04-25T17:19:58.134Z,80.77
2019-04-25T17:22:30.746Z,76.48
2019-04-25T17:25:04.734Z,77.60
2019-04-25T17:27:37.528Z,76.28
2019-04-25T17:30:10.287Z,76.27
2019-04-25T17:32:50.326Z,76.68
2019-04-25T17:35:17.216Z,73.86
2019-04-25T17:37:49.941Z,74.68
2019-04-25T17:40:22.474Z,76.45
2019-04-25T17:42:54.126Z,75.50
2019-04-25T17:45:26.796Z,76.66
2019-04-25T17:47:58.492Z,74.74
2019-04-25T17:50:30.235Z,74.53
2019-04-25T17:53:05.466Z,75.53
2019-04-25T17:55:39.567Z,73.78
2019-04-25T17:58:11.532Z,75.03
2019-04-25T18:00:45.043Z,74.43
2019-04-25T18:03:16.493Z,74.12
2019-04-25T18:05:48.901Z,74.49
2019-04-25T18:08:20.651Z,74.56
2019-04-25T18:10:53.442Z,74.65
2019-04-25T18:13:25.813Z,73.61
2019-04-25T18:15:58.565Z,74.11
2019-04-25T18:18:35.367Z,77.53
2019-04-25T18:21:07.156Z,74.12
2019-04-25T18:23:42.630Z,75.87
2019-04-25T18:26:16.410Z,74.64
2019-04-25T18:28:49.029Z,73.75
2019-04-25T18:31:22.763Z,73.27
2019-04-25T18:33:54.985Z,74.77
2019-04-25T18:36:27.886Z,74.66
2019-04-25T18:39:04.482Z,75.56
2019-04-25T18:41:37.714Z,77.73
2019-04-25T18:44:10.749Z,76.80
2019-04-25T18:46:44.666Z,72.75
2019-04-25T18:49:17.296Z,74.13
2019-04-25T18:51:57.477Z,74.45
2019-04-25T18:54:24.234Z,74.81
2019-04-25T18:56:56.952Z,76.81
2019-04-25T18:59:32.757Z,75.45
2019-04-25T19:02:05.185Z,72.65
2019-04-25T19:04:38.338Z,76.12
2019-04-25T19:07:21.937Z,75.34
2019-04-25T19:09:43.070Z,72.75
2019-04-25T19:12:14.743Z,72.33
2019-04-25T19:14:47.938Z,72.24
2019-04-25T19:17:19.587Z,75.10
2019-04-25T19:19:51.970Z,73.83
2019-04-25T19:22:23.835Z,76.27
2019-04-25T19:24:55.903Z,74.77
2019-04-25T19:27:28.696Z,75.96
2019-04-25T19:30:03.297Z,78.18
2019-04-25T19:32:34.389Z,75.62
2019-04-25T19:35:05.877Z,72.86
2019-04-25T19:37:37.366Z,72.27
2019-04-25T19:40:08.728Z,72.73
2019-04-25T19:42:44.657Z,76.81
2019-04-25T19:45:16.015Z,77.65
2019-04-25T19:47:47.094Z,76.23
2019-04-25T19:50:18.564Z,76.93
2019-04-25T19:52:50.662Z,77.58
2019-04-25T19:55:21.593Z,76.75
2019-04-25T19:57:52.660Z,75.32
2019-04-25T20:00:23.943Z,74.73
2019-04-25T20:02:56.904Z,75.12
2019-04-25T20:05:29.365Z,74.46
2019-04-25T20:08:02.467Z,76.21
2019-04-25T20:10:35.236Z,76.67
2019-04-25T20:13:13.134Z,75.84
2019-04-25T20:15:45.523Z,75.63
2019-04-25T20:18:16.487Z,76.22
2019-04-25T20:20:48.326Z,75.85
2019-04-25T20:23:20.079Z,74.74
2019-04-25T20:25:51.492Z,75.94
2019-04-25T20:28:23.102Z,76.11
2019-04-25T20:30:54.679Z,78.43
2019-04-25T20:33:26.370Z,74.42
2019-04-25T20:35:57.835Z,74.73
2019-04-25T20:38:32.049Z,74.84
2019-04-25T20:41:10.768Z,73.42
2019-04-25T20:43:42.811Z,74.18
2019-04-25T20:46:14.523Z,73.72
2019-04-25T20:48:48.108Z,74.85
2019-04-25T20:51:19.915Z,74.52
2019-04-25T20:53:51.010Z,76.92
2019-04-25T20:56:22.637Z,74.69
2019-04-25T20:58:53.879Z,74.65
2019-04-25T21:01:25.064Z,76.43
2019-04-25T21:03:55.316Z,78.97
2019-04-25T21:06:29.972Z,76.36
2019-04-25T21:09:02.266Z,74.46
2019-04-25T21:11:33.875Z,74.26
2019-04-25T21:14:04.749Z,74.29
2019-04-25T21:16:37.556Z,73.63
2019-04-25T21:19:10.029Z,72.72
2019-04-25T21:21:41.798Z,75.08
2019-04-25T21:24:12.460Z,74.89
2019-04-25T21:26:43.980Z,73.87
2019-04-25T21:29:15.341Z,69.92
2019-04-25T21:31:51.155Z,73.29
2019-04-25T21:34:26.714Z,71.94
2019-04-25T21:36:57.601Z,70.63
2019-04-25T21:39:30.616Z,71.71
2019-04-25T21:42:04.575Z,70.54
2019-04-25T21:44:36.151Z,72.17
2019-04-25T21:47:08.614Z,72.15
2019-04-25T21:49:40.257Z,71.74
2019-04-25T21:52:11.556Z,71.18
2019-04-25T21:54:43.233Z,70.87
2019-04-25T21:57:14.340Z,71.58
2019-04-25T21:59:45.929Z,73.44
2019-04-25T22:02:17.863Z,72.58
2019-04-25T22:04:56.634Z,74.15
2019-04-25T22:07:29.746Z,76.05
2019-04-25T22:10:01.852Z,73.46
2019-04-25T22:12:35.061Z,78.76
2019-04-25T22:15:08.994Z,74.15
2019-04-25T22:17:40.540Z,75.08
2019-04-25T22:20:11.946Z,74.73
2019-04-25T22:22:43.326Z,75.33
2019-04-25T22:25:14.521Z,76.32
2019-04-25T22:27:46.460Z,76.10
2019-04-25T22:30:28.725Z,75.35
2019-04-25T22:33:01.603Z,75.00
2019-04-25T22:35:35.269Z,75.98
2019-04-25T22:38:07.116Z,76.71
2019-04-25T22:40:41.489Z,76.60
